« Back
NWS Peachtree City, Ga » Text Product » CSG Terminal Aerodrome Forecast


Printer-friendly Version
Current Version              Previous Versions:   1  2  3  4  5  6  7  8  9  

Terminal Aerodrome Forecast

042
FTUS42 KFFC 271127
TAFCSG
TAF
KCSG 271127Z 2712/2812 32007G15KT P6SM SKC
     FM271400 33012G23KT P6SM SCT050
     FM280000 34007KT P6SM SKC=



USA.gov is the U.S. government's official web portal to all federal, state and local government web resources and services.